createdAt,value
2023-04-04T00:01:36.097Z,9.23
2023-04-04T00:03:38.008Z,9.32
2023-04-04T00:05:40.004Z,6.43
2023-04-04T00:07:41.939Z,10.70
2023-04-04T00:09:43.773Z,8.50
2023-04-04T00:11:46.051Z,14.23
2023-04-04T00:13:47.904Z,10.48
2023-04-04T00:15:50.083Z,6.15
2023-04-04T00:17:52.035Z,10.38
2023-04-04T00:19:53.846Z,6.90
2023-04-04T00:21:55.670Z,9.35
2023-04-04T00:23:57.878Z,6.38
2023-04-04T00:25:59.674Z,8.60
2023-04-04T00:28:01.664Z,7.47
2023-04-04T00:30:03.694Z,6.80
2023-04-04T00:32:05.620Z,7.97
2023-04-04T00:34:07.584Z,5.55
2023-04-04T00:36:09.550Z,8.30
2023-04-04T00:38:12.178Z,5.90
2023-04-04T00:40:14.084Z,7.55
2023-04-04T00:42:15.908Z,5.63
2023-04-04T00:44:17.774Z,4.47
2023-04-04T00:46:19.696Z,6.45
2023-04-04T00:48:21.847Z,6.97
2023-04-04T00:50:23.713Z,4.38
2023-04-04T00:52:25.670Z,5.78
2023-04-04T00:54:27.501Z,8.00
2023-04-04T00:56:30.694Z,6.85
2023-04-04T00:58:32.528Z,4.35
2023-04-04T01:00:36.087Z,4.15
2023-04-04T01:02:37.959Z,4.07
2023-04-04T01:04:40.002Z,7.20
2023-04-04T01:06:42.306Z,5.25
2023-04-04T01:08:44.132Z,3.95
2023-04-04T01:10:45.968Z,5.90
2023-04-04T01:12:47.845Z,6.65
2023-04-04T01:14:49.709Z,4.85
2023-04-04T01:16:51.764Z,4.45
2023-04-04T01:18:53.607Z,4.43
2023-04-04T01:21:02.279Z,5.70
2023-04-04T01:23:04.106Z,3.10
2023-04-04T01:25:06.473Z,4.13
2023-04-04T01:27:08.326Z,7.45
2023-04-04T01:29:10.558Z,3.65
2023-04-04T01:31:13.100Z,6.13
2023-04-04T01:33:21.151Z,6.28
2023-04-04T01:35:27.413Z,3.42
2023-04-04T01:38:04.097Z,3.80
2023-04-04T01:40:17.253Z,4.43
2023-04-04T01:42:20.130Z,3.33
2023-04-04T01:44:22.772Z,6.85
2023-04-04T01:48:27.348Z,4.22
2023-04-04T01:50:29.214Z,6.57
2023-04-04T01:52:31.270Z,3.47
2023-04-04T01:54:34.204Z,6.05
2023-04-04T01:56:36.016Z,4.40
2023-04-04T01:58:37.845Z,5.93
2023-04-04T02:00:39.938Z,6.25
2023-04-04T02:02:42.079Z,3.35
2023-04-04T02:04:44.320Z,4.10
2023-04-04T02:06:46.302Z,4.10
2023-04-04T02:08:48.250Z,4.32
2023-04-04T02:10:50.054Z,4.85
2023-04-04T02:12:55.036Z,4.68
2023-04-04T02:14:56.862Z,3.47
2023-04-04T02:16:58.688Z,3.80
2023-04-04T02:19:00.801Z,3.38
2023-04-04T02:21:02.611Z,4.95
2023-04-04T02:23:04.454Z,8.32
2023-04-04T02:25:07.009Z,4.25
2023-04-04T02:27:08.831Z,5.65
2023-04-04T02:29:10.695Z,7.15
2023-04-04T02:31:12.557Z,3.13
2023-04-04T02:33:14.370Z,3.95
2023-04-04T02:35:17.482Z,6.95
2023-04-04T02:37:19.316Z,4.15
2023-04-04T02:39:21.171Z,3.05
2023-04-04T02:41:23.426Z,4.45
2023-04-04T02:43:25.475Z,4.72
2023-04-04T02:45:27.353Z,5.05
2023-04-04T02:47:30.059Z,4.50
2023-04-04T02:49:32.123Z,6.25
2023-04-04T02:51:34.199Z,5.10
2023-04-04T02:53:36.275Z,5.63
2023-04-04T02:55:38.106Z,4.78
2023-04-04T02:57:40.795Z,5.38
2023-04-04T02:59:42.725Z,6.22
2023-04-04T03:01:44.546Z,6.50
2023-04-04T03:03:46.641Z,8.23
2023-04-04T03:05:52.179Z,3.95
2023-04-04T03:07:57.866Z,4.30
2023-04-04T03:09:59.719Z,6.13
2023-04-04T03:12:02.269Z,6.15
2023-04-04T03:16:10.185Z,4.63
2023-04-04T03:18:12.032Z,4.75
2023-04-04T03:20:15.169Z,5.20
2023-04-04T03:22:17.502Z,5.60
2023-04-04T03:24:19.699Z,8.13
2023-04-04T03:26:21.569Z,5.97
2023-04-04T03:28:23.434Z,5.18
2023-04-04T03:30:25.486Z,4.90
2023-04-04T03:32:27.434Z,6.70
2023-04-04T03:34:29.296Z,2.40
2023-04-04T03:36:31.458Z,9.50
2023-04-04T03:38:33.295Z,5.60
2023-04-04T03:40:35.527Z,5.05
2023-04-04T03:42:37.361Z,8.23
2023-04-04T03:44:42.266Z,5.40
2023-04-04T03:46:44.124Z,6.03
2023-04-04T03:48:46.255Z,5.45
2023-04-04T03:50:48.099Z,6.18
2023-04-04T03:52:49.966Z,6.40
2023-04-04T03:54:51.818Z,9.23
2023-04-04T03:56:53.637Z,5.75
2023-04-04T03:58:56.707Z,4.10
2023-04-04T04:00:58.624Z,6.70
2023-04-04T04:03:00.634Z,4.10
2023-04-04T04:05:02.702Z,6.03
2023-04-04T04:07:04.528Z,5.90
2023-04-04T04:09:06.348Z,10.30
2023-04-04T04:11:08.557Z,6.88
2023-04-04T04:13:10.649Z,8.27
2023-04-04T04:15:13.751Z,5.97
2023-04-04T04:17:15.979Z,8.48
2023-04-04T04:19:17.823Z,7.10
2023-04-04T04:21:19.653Z,6.75
2023-04-04T04:23:21.536Z,7.25
2023-04-04T04:25:23.589Z,6.10
2023-04-04T04:27:25.409Z,4.05
2023-04-04T04:29:28.115Z,6.20
2023-04-04T04:31:31.441Z,7.88
2023-04-04T04:33:33.558Z,7.60
2023-04-04T04:35:39.831Z,6.50
2023-04-04T04:37:41.759Z,8.35
2023-04-04T04:39:43.560Z,9.07
2023-04-04T04:41:45.387Z,6.53
2023-04-04T04:43:47.192Z,6.88
2023-04-04T04:45:49.208Z,7.45
2023-04-04T04:47:51.436Z,8.93
2023-04-04T04:49:53.287Z,6.78
2023-04-04T04:51:55.600Z,6.47
2023-04-04T04:53:57.466Z,4.10
2023-04-04T04:55:59.288Z,8.82
2023-04-04T04:58:01.091Z,4.82
2023-04-04T05:00:04.605Z,9.82
2023-04-04T05:02:07.018Z,16.08
2023-04-04T05:04:09.103Z,5.57
2023-04-04T05:06:10.974Z,7.95
2023-04-04T05:08:12.820Z,7.28
2023-04-04T05:10:14.917Z,8.35
2023-04-04T05:12:16.807Z,5.90
2023-04-04T05:14:18.661Z,5.03
2023-04-04T05:16:20.703Z,5.95
2023-04-04T05:18:22.649Z,4.03
2023-04-04T05:20:24.449Z,5.07
2023-04-04T05:22:26.357Z,6.43
2023-04-04T05:24:28.696Z,7.28
2023-04-04T05:26:30.513Z,6.75
2023-04-04T05:28:32.438Z,6.47
2023-04-04T05:30:34.235Z,8.40
2023-04-04T05:32:36.367Z,8.45
2023-04-04T05:34:38.202Z,6.82
2023-04-04T05:36:40.057Z,6.88
2023-04-04T05:38:42.005Z,5.68
2023-04-04T05:40:45.475Z,6.47
2023-04-04T05:42:57.265Z,11.57
2023-04-04T05:44:59.051Z,7.47
2023-04-04T05:47:01.094Z,6.33
2023-04-04T05:49:02.949Z,4.57
2023-04-04T05:51:04.743Z,5.65
2023-04-04T05:53:06.634Z,6.97
2023-04-04T05:55:08.571Z,8.40
2023-04-04T05:57:10.588Z,7.80
2023-04-04T05:59:12.554Z,5.18
2023-04-04T06:01:14.362Z,15.43
2023-04-04T06:03:16.790Z,10.30
2023-04-04T06:05:19.804Z,7.38
2023-04-04T06:07:21.670Z,4.40
2023-04-04T06:09:23.529Z,4.88
2023-04-04T06:11:26.352Z,5.32
2023-04-04T06:13:28.210Z,4.70
2023-04-04T06:15:30.023Z,4.80
2023-04-04T06:17:31.840Z,8.68
2023-04-04T06:19:33.643Z,5.95
2023-04-04T06:21:35.443Z,11.35
2023-04-04T06:23:37.875Z,6.88
2023-04-04T06:25:39.775Z,9.45
2023-04-04T06:27:41.563Z,9.65
2023-04-04T06:29:43.993Z,5.80
2023-04-04T06:31:45.991Z,8.65
2023-04-04T06:33:47.925Z,8.07
2023-04-04T06:35:49.770Z,7.97
2023-04-04T06:37:56.092Z,7.30
2023-04-04T06:39:58.356Z,9.70
2023-04-04T06:42:01.413Z,9.93
2023-04-04T06:44:03.257Z,8.25
2023-04-04T06:46:05.080Z,6.38
2023-04-04T06:48:07.076Z,12.80
2023-04-04T06:50:09.590Z,13.15
2023-04-04T06:52:11.430Z,9.63
2023-04-04T06:54:13.253Z,10.27
2023-04-04T06:56:15.112Z,11.35
2023-04-04T06:58:16.906Z,8.40
2023-04-04T07:00:19.099Z,10.07
2023-04-04T07:02:20.966Z,10.43
2023-04-04T07:04:22.878Z,12.75
2023-04-04T07:06:26.713Z,16.10
2023-04-04T07:08:34.401Z,8.65
2023-04-04T07:10:39.716Z,15.25
2023-04-04T07:12:42.629Z,8.27
2023-04-04T07:14:44.439Z,5.90
2023-04-04T07:16:46.284Z,9.13
2023-04-04T07:18:48.175Z,7.50
2023-04-04T07:20:50.012Z,7.95
2023-04-04T07:22:51.815Z,5.97
2023-04-04T07:24:54.685Z,10.63
2023-04-04T07:26:57.010Z,6.88
2023-04-04T07:28:58.794Z,5.22
2023-04-04T07:31:01.935Z,6.20
2023-04-04T07:33:04.657Z,6.78
2023-04-04T07:35:07.101Z,6.63
2023-04-04T07:37:08.891Z,5.68
2023-04-04T07:39:10.686Z,7.47
2023-04-04T07:41:12.631Z,6.53
2023-04-04T07:43:14.465Z,6.15
2023-04-04T07:45:16.616Z,5.68
2023-04-04T07:47:18.731Z,6.22
2023-04-04T07:49:20.805Z,4.47
2023-04-04T07:51:29.412Z,6.03
2023-04-04T07:53:31.442Z,3.92
2023-04-04T07:55:33.258Z,5.78
2023-04-04T07:57:39.374Z,10.23
2023-04-04T07:59:41.279Z,10.20
2023-04-04T08:01:45.088Z,4.50
2023-04-04T08:03:50.206Z,6.03
2023-04-04T08:05:52.165Z,9.20
2023-04-04T08:07:54.073Z,7.35
2023-04-04T08:09:55.873Z,7.63
2023-04-04T08:11:57.732Z,4.83
2023-04-04T08:13:59.563Z,6.25
2023-04-04T08:16:01.421Z,4.38
2023-04-04T08:18:03.277Z,6.20
2023-04-04T08:20:05.718Z,7.05
2023-04-04T08:22:09.742Z,5.45
2023-04-04T08:24:12.723Z,2.17
2023-04-04T08:26:14.576Z,4.75
2023-04-04T08:28:16.409Z,7.75
2023-04-04T08:30:18.813Z,11.38
2023-04-04T08:32:20.631Z,5.13
2023-04-04T08:34:23.676Z,5.33
2023-04-04T08:36:25.502Z,8.90
2023-04-04T08:38:27.406Z,5.10
2023-04-04T08:40:32.700Z,19.17
2023-04-04T08:42:36.225Z,7.40
2023-04-04T08:44:38.682Z,4.70
2023-04-04T08:46:40.564Z,6.90
2023-04-04T08:48:43.301Z,9.30
2023-04-04T08:52:46.908Z,6.78
2023-04-04T08:54:48.763Z,6.57
2023-04-04T08:56:52.717Z,6.95
2023-04-04T08:58:54.946Z,7.97
2023-04-04T09:00:56.834Z,6.35
2023-04-04T09:03:08.264Z,9.18
2023-04-04T09:05:10.980Z,6.40
2023-04-04T09:07:13.306Z,9.90
2023-04-04T09:09:15.128Z,7.75
2023-04-04T09:11:17.726Z,9.23
2023-04-04T09:13:19.615Z,8.98
2023-04-04T09:15:21.724Z,13.40
2023-04-04T09:17:23.799Z,11.02
2023-04-04T09:19:26.548Z,6.45
2023-04-04T09:21:29.323Z,5.45
2023-04-04T09:25:33.026Z,17.90
2023-04-04T09:27:34.842Z,11.15
2023-04-04T09:29:41.353Z,12.50
2023-04-04T09:31:46.696Z,9.65
2023-04-04T09:33:49.937Z,13.40
2023-04-04T09:36:03.588Z,8.65
2023-04-04T09:38:06.858Z,7.18
2023-04-04T09:40:13.515Z,6.80
2023-04-04T09:42:15.362Z,5.68
2023-04-04T09:44:17.425Z,5.15
2023-04-04T09:46:19.718Z,8.90
2023-04-04T09:48:32.808Z,7.32
2023-04-04T09:50:35.063Z,4.97
2023-04-04T09:52:37.014Z,8.65
2023-04-04T09:54:47.972Z,4.53
2023-04-04T09:56:50.568Z,3.78
2023-04-04T09:59:03.452Z,4.05
2023-04-04T10:01:10.135Z,4.38
2023-04-04T10:03:14.106Z,5.55
2023-04-04T10:05:16.855Z,6.18
2023-04-04T10:09:20.882Z,6.13
2023-04-04T10:11:33.656Z,5.70
2023-04-04T10:13:36.974Z,3.97
2023-04-04T10:15:38.929Z,5.32
2023-04-04T10:17:41.887Z,6.90
2023-04-04T10:19:43.871Z,5.00
2023-04-04T10:21:46.869Z,5.22
2023-04-04T10:23:49.124Z,6.45
2023-04-04T10:25:51.458Z,7.63
2023-04-04T10:27:53.308Z,5.82
2023-04-04T10:29:55.188Z,9.33
2023-04-04T10:32:02.840Z,5.93
2023-04-04T10:34:14.012Z,5.60
2023-04-04T10:36:21.468Z,6.22
2023-04-04T10:38:26.615Z,7.60
2023-04-04T10:40:34.024Z,6.20
2023-04-04T10:42:40.159Z,6.60
2023-04-04T10:44:42.714Z,8.82
2023-04-04T10:46:45.860Z,6.93
2023-04-04T10:48:47.771Z,5.93
2023-04-04T10:50:49.605Z,6.75
2023-04-04T10:52:51.645Z,7.80
2023-04-04T10:54:55.268Z,7.35
2023-04-04T10:57:00.876Z,6.40
2023-04-04T10:59:13.517Z,8.82
2023-04-04T11:01:21.043Z,12.15
2023-04-04T11:03:25.552Z,5.00
2023-04-04T11:05:28.183Z,5.60
2023-04-04T11:09:54.355Z,4.68
2023-04-04T11:12:08.829Z,4.35
2023-04-04T11:14:10.989Z,4.75
2023-04-04T11:16:15.769Z,8.55
2023-04-04T11:18:32.107Z,4.65
2023-04-04T11:20:36.791Z,5.50
2023-04-04T11:22:41.318Z,7.85
2023-04-04T11:24:44.667Z,6.85
2023-04-04T11:26:47.291Z,7.35
2023-04-04T11:28:49.152Z,10.10
2023-04-04T11:31:11.959Z,3.42
2023-04-04T11:33:14.167Z,6.70
2023-04-04T11:35:16.592Z,4.05
2023-04-04T11:37:18.920Z,4.93
2023-04-04T11:39:31.100Z,7.55
2023-04-04T11:41:57.442Z,10.88
2023-04-04T11:44:04.218Z,6.43
2023-04-04T11:46:08.223Z,10.00
2023-04-04T11:48:10.588Z,6.78
2023-04-04T11:50:14.374Z,6.78
2023-04-04T11:52:17.777Z,5.72
2023-04-04T11:54:19.937Z,5.53
2023-04-04T11:56:21.756Z,5.50
2023-04-04T11:58:24.209Z,3.10
2023-04-04T12:00:32.845Z,4.88
2023-04-04T12:02:35.374Z,4.00
2023-04-04T12:04:38.902Z,3.85
2023-04-04T12:06:42.881Z,13.07
2023-04-04T12:08:44.719Z,6.18
2023-04-04T12:10:46.797Z,5.13
2023-04-04T12:12:49.896Z,11.65
2023-04-04T12:16:56.706Z,6.75
2023-04-04T12:19:01.959Z,3.15
2023-04-04T12:21:03.930Z,3.30
2023-04-04T12:23:05.736Z,4.38
2023-04-04T12:25:08.121Z,6.87
2023-04-04T12:27:09.881Z,2.95
2023-04-04T12:29:12.946Z,7.03
2023-04-04T12:31:14.783Z,3.95
2023-04-04T12:33:17.336Z,5.07
2023-04-04T12:35:19.236Z,8.70
2023-04-04T12:37:22.418Z,2.85
2023-04-04T12:39:26.729Z,3.90
2023-04-04T12:41:28.781Z,6.00
2023-04-04T12:43:33.862Z,5.82
2023-04-04T12:45:39.710Z,6.32
2023-04-04T12:47:54.812Z,3.25
2023-04-04T12:49:56.716Z,3.42
2023-04-04T12:52:03.863Z,7.47
2023-04-04T12:54:06.744Z,5.32
2023-04-04T12:56:09.758Z,3.85
2023-04-04T12:58:12.168Z,5.55
2023-04-04T13:00:14.444Z,4.95
2023-04-04T13:02:19.549Z,4.03
2023-04-04T13:04:23.341Z,3.67
2023-04-04T13:06:29.140Z,4.18
2023-04-04T13:08:31.723Z,4.03
2023-04-04T13:11:00.186Z,6.95
2023-04-04T13:13:02.573Z,4.43
2023-04-04T13:15:07.061Z,4.78
2023-04-04T13:17:09.585Z,6.43
2023-04-04T13:19:11.696Z,6.50
2023-04-04T13:21:13.598Z,3.58
2023-04-04T13:23:15.913Z,5.40
2023-04-04T13:25:17.747Z,8.07
2023-04-04T13:27:19.572Z,3.40
2023-04-04T13:29:22.008Z,2.37
2023-04-04T13:31:23.867Z,4.43
2023-04-04T13:33:25.760Z,3.47
2023-04-04T13:35:27.614Z,4.10
2023-04-04T13:37:29.450Z,4.50
2023-04-04T13:39:31.375Z,4.53
2023-04-04T13:41:33.174Z,4.63
2023-04-04T13:43:35.014Z,2.95
2023-04-04T13:45:37.002Z,3.03
2023-04-04T13:47:39.004Z,5.22
2023-04-04T13:49:41.224Z,4.22
2023-04-04T13:51:42.992Z,3.72
2023-04-04T13:53:45.377Z,4.47
2023-04-04T13:56:02.156Z,8.48
2023-04-04T13:58:08.963Z,4.82
2023-04-04T14:00:11.285Z,2.47
2023-04-04T14:02:13.121Z,5.03
2023-04-04T14:04:23.381Z,3.33
2023-04-04T14:06:26.718Z,2.40
2023-04-04T14:08:28.703Z,1.58
2023-04-04T14:10:30.826Z,4.55
2023-04-04T14:12:32.866Z,2.40
2023-04-04T14:14:35.802Z,1.55
2023-04-04T14:16:39.632Z,5.60
2023-04-04T14:18:41.498Z,3.97
2023-04-04T14:20:43.276Z,6.27
2023-04-04T14:22:47.657Z,3.07
2023-04-04T14:24:49.521Z,3.30
2023-04-04T14:26:51.351Z,3.93
2023-04-04T14:28:53.132Z,2.43
2023-04-04T14:30:54.950Z,5.33
2023-04-04T14:32:56.753Z,4.47
2023-04-04T14:34:58.682Z,3.88
2023-04-04T14:37:00.709Z,4.00
2023-04-04T14:39:02.983Z,5.07
2023-04-04T14:41:05.251Z,3.90
2023-04-04T14:43:07.802Z,6.38
2023-04-04T14:45:11.424Z,7.85
2023-04-04T14:47:13.203Z,2.58
2023-04-04T14:49:15.006Z,2.73
2023-04-04T14:51:18.111Z,2.03
2023-04-04T14:53:19.904Z,3.47
2023-04-04T14:55:22.122Z,2.63
2023-04-04T14:57:24.179Z,4.20
2023-04-04T14:59:26.060Z,2.45
2023-04-04T15:01:28.001Z,2.15
2023-04-04T15:03:29.955Z,4.20
2023-04-04T15:05:33.217Z,3.47
2023-04-04T15:07:35.030Z,5.15
2023-04-04T15:09:37.194Z,2.10
2023-04-04T15:11:39.595Z,3.67
2023-04-04T15:13:41.433Z,2.97
2023-04-04T15:15:43.280Z,3.57
2023-04-04T15:17:45.238Z,5.67
2023-04-04T15:19:47.148Z,3.03
2023-04-04T15:21:49.293Z,4.22
2023-04-04T15:23:51.597Z,2.47
2023-04-04T15:25:53.388Z,2.80
2023-04-04T15:27:55.195Z,9.40
2023-04-04T15:29:57.036Z,3.72
2023-04-04T15:31:58.905Z,6.60
2023-04-04T15:34:00.852Z,5.72
2023-04-04T15:36:02.724Z,6.70
2023-04-04T15:38:04.577Z,3.83
2023-04-04T15:40:06.874Z,3.63
2023-04-04T15:42:09.076Z,2.97
2023-04-04T15:44:11.064Z,3.63
2023-04-04T15:46:13.404Z,2.40
2023-04-04T15:48:15.563Z,5.50
2023-04-04T15:50:17.459Z,5.05
2023-04-04T15:52:19.281Z,5.75
2023-04-04T15:54:21.155Z,5.35
2023-04-04T15:56:23.062Z,3.93
2023-04-04T15:58:25.171Z,3.97
2023-04-04T16:00:29.854Z,5.72
2023-04-04T16:02:32.079Z,3.30
2023-04-04T16:04:34.159Z,4.10
2023-04-04T16:06:37.684Z,4.85
2023-04-04T16:08:42.013Z,3.72
2023-04-04T16:10:44.747Z,3.38
2023-04-04T16:14:48.375Z,3.17
2023-04-04T16:16:50.472Z,6.87
2023-04-04T16:18:52.330Z,2.10
2023-04-04T16:20:54.179Z,2.50
2023-04-04T16:22:56.225Z,6.17
2023-04-04T16:24:58.023Z,4.80
2023-04-04T16:26:59.811Z,8.95
2023-04-04T16:29:04.387Z,5.43
2023-04-04T16:31:06.486Z,4.30
2023-04-04T16:33:08.351Z,6.65
2023-04-04T16:35:10.476Z,6.60
2023-04-04T16:37:13.199Z,2.88
2023-04-04T16:41:16.806Z,4.53
2023-04-04T16:43:18.720Z,5.07
2023-04-04T16:45:21.691Z,3.20
2023-04-04T16:47:23.848Z,2.60
2023-04-04T16:49:26.504Z,4.25
2023-04-04T16:51:28.712Z,3.03
2023-04-04T16:53:30.820Z,6.45
2023-04-04T16:55:32.619Z,1.25
2023-04-04T16:57:34.400Z,3.03
2023-04-04T16:59:37.402Z,4.63
2023-04-04T17:01:39.357Z,8.57
2023-04-04T17:03:41.409Z,5.38
2023-04-04T17:05:43.263Z,4.03
2023-04-04T17:07:45.191Z,3.77
2023-04-04T17:09:48.622Z,3.85
2023-04-04T17:11:50.721Z,4.50
2023-04-04T17:13:52.789Z,6.20
2023-04-04T17:15:54.596Z,7.30
2023-04-04T17:17:56.463Z,5.00
2023-04-04T17:19:58.288Z,6.07
2023-04-04T17:22:00.124Z,5.67
2023-04-04T17:24:01.990Z,7.47
2023-04-04T17:26:04.123Z,4.65
2023-04-04T17:28:06.352Z,6.70
2023-04-04T17:30:08.768Z,3.85
2023-04-04T17:32:10.646Z,7.30
2023-04-04T17:34:13.004Z,9.02
2023-04-04T17:36:14.882Z,9.60
2023-04-04T17:38:16.721Z,8.57
2023-04-04T17:40:19.524Z,19.87
2023-04-04T17:42:21.388Z,18.63
2023-04-04T17:44:23.203Z,14.25
2023-04-04T17:46:25.583Z,13.50
2023-04-04T17:48:32.243Z,24.17
2023-04-04T17:50:34.108Z,10.15
2023-04-04T17:52:36.153Z,9.32
2023-04-04T17:54:38.479Z,11.15
2023-04-04T17:56:40.479Z,9.10
2023-04-04T17:58:42.520Z,12.13
2023-04-04T18:00:44.857Z,9.57
2023-04-04T18:02:46.796Z,10.07
2023-04-04T18:04:48.670Z,18.13
2023-04-04T18:06:52.246Z,28.57
2023-04-04T18:08:54.884Z,37.78
2023-04-04T18:12:59.064Z,41.58
2023-04-04T18:15:02.379Z,36.38
2023-04-04T18:17:04.635Z,44.22
2023-04-04T18:19:06.489Z,49.95
2023-04-04T18:21:08.543Z,62.67
2023-04-04T18:23:10.793Z,73.45
2023-04-04T18:25:12.932Z,67.63
2023-04-04T18:27:14.905Z,64.00
2023-04-04T18:29:16.846Z,44.35
2023-04-04T18:31:18.729Z,48.95
2023-04-04T18:33:20.668Z,23.67
2023-04-04T18:35:22.498Z,21.98
2023-04-04T18:37:24.360Z,19.10
2023-04-04T18:39:26.375Z,20.93
2023-04-04T18:41:28.191Z,17.85
2023-04-04T18:43:30.022Z,15.10
2023-04-04T18:45:39.526Z,11.20
2023-04-04T18:47:41.984Z,13.88
2023-04-04T18:49:44.086Z,13.25
2023-04-04T18:51:47.477Z,18.58
2023-04-04T18:53:49.340Z,19.33
2023-04-04T18:55:53.400Z,29.50
2023-04-04T18:57:55.527Z,26.30
2023-04-04T18:59:57.381Z,21.75
2023-04-04T19:02:00.954Z,21.80
2023-04-04T19:04:03.323Z,19.13
2023-04-04T19:06:06.523Z,17.50
2023-04-04T19:08:11.152Z,15.32
2023-04-04T19:10:12.979Z,17.65
2023-04-04T19:12:14.822Z,17.67
2023-04-04T19:14:17.101Z,12.93
2023-04-04T19:16:19.024Z,21.05
2023-04-04T19:18:20.910Z,12.10
2023-04-04T19:20:22.747Z,12.55
2023-04-04T19:22:24.594Z,12.63
2023-04-04T19:24:26.441Z,18.73
2023-04-04T19:26:28.249Z,26.20
2023-04-04T19:28:30.144Z,26.27
2023-04-04T19:30:50.352Z,22.83
2023-04-04T19:32:52.264Z,24.15
2023-04-04T19:34:54.202Z,19.48
2023-04-04T19:36:56.066Z,22.65
2023-04-04T19:38:57.998Z,23.55
2023-04-04T19:41:03.132Z,26.33
2023-04-04T19:43:04.954Z,23.98
2023-04-04T19:45:07.057Z,25.52
2023-04-04T19:47:10.326Z,18.65
2023-04-04T19:49:12.715Z,19.13
2023-04-04T19:51:17.224Z,17.10
2023-04-04T19:53:22.078Z,13.98
2023-04-04T19:55:40.316Z,19.30
2023-04-04T19:57:42.376Z,14.02
2023-04-04T19:59:56.916Z,17.77
2023-04-04T20:02:00.845Z,18.08
2023-04-04T20:04:09.997Z,19.02
2023-04-04T20:06:28.500Z,16.52
2023-04-04T20:08:36.614Z,21.55
2023-04-04T20:10:39.997Z,17.27
2023-04-04T20:12:42.316Z,18.25
2023-04-04T20:14:44.172Z,18.08
2023-04-04T20:16:46.128Z,16.55
2023-04-04T20:18:48.165Z,18.63
2023-04-04T20:21:22.748Z,19.48
2023-04-04T20:23:26.356Z,19.35
2023-04-04T20:25:41.252Z,15.93
2023-04-04T20:27:43.434Z,16.75
2023-04-04T20:29:45.342Z,11.90
2023-04-04T20:31:51.910Z,11.13
2023-04-04T20:33:53.884Z,19.52
2023-04-04T20:35:55.807Z,11.73
2023-04-04T20:37:57.621Z,18.13
2023-04-04T20:40:09.175Z,15.25
2023-04-04T20:42:19.164Z,20.90
2023-04-04T20:44:21.056Z,17.73
2023-04-04T20:46:24.302Z,16.73
2023-04-04T20:48:39.800Z,20.80
2023-04-04T20:50:42.872Z,21.38
2023-04-04T20:52:51.173Z,16.05
2023-04-04T20:54:53.015Z,13.80
2023-04-04T20:56:57.117Z,17.50
2023-04-04T20:58:59.214Z,15.52
2023-04-04T21:01:01.384Z,13.70
2023-04-04T21:03:12.185Z,15.80
2023-04-04T21:05:38.616Z,15.73
2023-04-04T21:07:41.626Z,15.25
2023-04-04T21:09:43.467Z,19.63
2023-04-04T21:11:45.699Z,16.77
2023-04-04T21:13:47.602Z,16.75
2023-04-04T21:15:49.552Z,16.58
2023-04-04T21:17:51.797Z,19.73
2023-04-04T21:19:53.724Z,18.38
2023-04-04T21:21:55.783Z,15.65
2023-04-04T21:24:01.036Z,15.07
2023-04-04T21:26:08.199Z,15.15
2023-04-04T21:28:11.504Z,16.63
2023-04-04T21:30:39.989Z,12.57
2023-04-04T21:32:41.967Z,14.13
2023-04-04T21:34:43.825Z,11.52
2023-04-04T21:36:46.228Z,14.80
2023-04-04T21:38:48.055Z,14.32
2023-04-04T21:40:49.851Z,11.63
2023-04-04T21:42:51.757Z,14.05
2023-04-04T21:44:53.535Z,17.33
2023-04-04T21:46:55.709Z,15.17
2023-04-04T21:48:57.606Z,20.15
2023-04-04T21:50:59.441Z,18.60
2023-04-04T21:53:01.226Z,14.50
2023-04-04T21:55:03.359Z,17.15
2023-04-04T21:57:05.198Z,15.07
2023-04-04T21:59:09.119Z,23.35
2023-04-04T22:01:11.202Z,13.70
2023-04-04T22:03:13.029Z,14.35
2023-04-04T22:05:14.864Z,15.10
2023-04-04T22:07:16.701Z,17.08
2023-04-04T22:09:19.309Z,13.52
2023-04-04T22:13:30.853Z,15.38
2023-04-04T22:15:32.663Z,14.60
2023-04-04T22:17:36.299Z,13.32
2023-04-04T22:19:43.803Z,17.67
2023-04-04T22:21:47.021Z,14.48
2023-04-04T22:23:51.803Z,15.00
2023-04-04T22:25:53.757Z,17.48
2023-04-04T22:27:55.530Z,13.00
2023-04-04T22:29:57.449Z,15.93
2023-04-04T22:31:59.254Z,16.60
2023-04-04T22:34:02.090Z,21.45
2023-04-04T22:36:05.421Z,18.10
2023-04-04T22:38:07.435Z,18.67
2023-04-04T22:40:13.556Z,27.50
2023-04-04T22:42:15.695Z,22.90
2023-04-04T22:44:18.278Z,22.20
2023-04-04T22:48:24.668Z,20.80
2023-04-04T22:50:27.154Z,16.88
2023-04-04T22:52:30.792Z,22.60
2023-04-04T22:54:33.153Z,21.98
2023-04-04T22:56:34.953Z,20.27
2023-04-04T22:58:36.792Z,29.33
2023-04-04T23:00:38.850Z,26.50
2023-04-04T23:02:41.824Z,21.88
2023-04-04T23:04:43.731Z,19.85
2023-04-04T23:06:46.407Z,19.55
2023-04-04T23:10:49.936Z,20.10
2023-04-04T23:12:52.023Z,16.88
2023-04-04T23:14:53.803Z,26.17
2023-04-04T23:16:57.051Z,33.08
2023-04-04T23:18:58.880Z,24.40
2023-04-04T23:21:00.694Z,26.73
2023-04-04T23:23:02.599Z,23.05
2023-04-04T23:25:06.481Z,24.80
2023-04-04T23:27:08.289Z,31.60
2023-04-04T23:29:10.065Z,26.63
2023-04-04T23:31:11.971Z,23.48
2023-04-04T23:33:14.737Z,34.50
2023-04-04T23:35:16.583Z,26.15
2023-04-04T23:37:18.371Z,29.00
2023-04-04T23:39:20.345Z,31.58
2023-04-04T23:41:22.261Z,27.48
2023-04-04T23:43:24.087Z,30.55
2023-04-04T23:45:26.180Z,27.85
2023-04-04T23:47:28.199Z,32.30
2023-04-04T23:49:30.070Z,25.67
2023-04-04T23:51:38.336Z,27.38
2023-04-04T23:53:40.456Z,31.42
2023-04-04T23:55:42.270Z,24.30
2023-04-04T23:57:44.229Z,26.58
2023-04-04T23:59:46.152Z,25.25
